createdAt,value
2018-07-04T00:00:51.565Z,0.00
2018-07-04T00:01:51.545Z,0.00
2018-07-04T00:02:51.537Z,0.00
2018-07-04T00:03:51.526Z,0.00
2018-07-04T00:04:51.515Z,0.00
2018-07-04T00:05:51.520Z,0.00
2018-07-04T00:06:51.493Z,0.00
2018-07-04T00:07:51.484Z,0.00
2018-07-04T00:08:51.473Z,0.00
2018-07-04T00:09:51.463Z,0.00
2018-07-04T00:10:51.454Z,0.00
2018-07-04T00:11:51.451Z,0.00
2018-07-04T00:12:51.428Z,0.00
2018-07-04T00:13:51.419Z,0.00
2018-07-04T00:14:51.406Z,0.00
2018-07-04T00:15:51.406Z,0.00
2018-07-04T00:16:51.404Z,0.00
2018-07-04T00:17:51.377Z,0.00
2018-07-04T00:18:51.366Z,0.00
2018-07-04T00:19:51.352Z,0.00
2018-07-04T00:20:51.344Z,0.00
2018-07-04T00:21:51.353Z,0.00
2018-07-04T00:22:51.325Z,0.00
2018-07-04T00:23:51.310Z,0.00
2018-07-04T00:24:51.301Z,0.00
2018-07-04T00:25:51.289Z,0.00
2018-07-04T00:26:51.279Z,0.00
2018-07-04T00:27:51.281Z,0.00
2018-07-04T00:28:51.263Z,0.00
2018-07-04T00:29:51.253Z,0.00
2018-07-04T00:30:51.239Z,0.00
2018-07-04T00:31:51.227Z,0.00
2018-07-04T00:32:51.224Z,0.00
2018-07-04T00:33:51.203Z,0.00
2018-07-04T00:34:51.194Z,0.00
2018-07-04T00:35:51.184Z,0.00
2018-07-04T00:36:51.174Z,0.00
2018-07-04T00:37:51.176Z,0.00
2018-07-04T00:38:51.149Z,0.00
2018-07-04T00:39:51.141Z,0.00
2018-07-04T00:40:51.130Z,0.00
2018-07-04T00:41:51.119Z,0.00
2018-07-04T00:42:51.109Z,0.00
2018-07-04T00:43:51.103Z,0.00
2018-07-04T00:44:51.084Z,0.00
2018-07-04T00:45:51.071Z,0.00
2018-07-04T00:46:51.060Z,0.00
2018-07-04T00:47:51.056Z,0.00
2018-07-04T00:48:51.051Z,0.00
2018-07-04T00:49:51.030Z,0.00
2018-07-04T00:50:51.024Z,0.00
2018-07-04T00:51:51.006Z,0.00
2018-07-04T00:52:50.994Z,0.00
2018-07-04T00:53:51.008Z,0.00
2018-07-04T00:54:50.979Z,0.00
2018-07-04T00:55:50.962Z,0.00
2018-07-04T00:56:50.950Z,0.00
2018-07-04T00:57:50.940Z,0.00
2018-07-04T00:58:50.932Z,0.00
2018-07-04T00:59:50.932Z,0.00
2018-07-04T01:00:50.912Z,0.00
2018-07-04T01:01:50.902Z,0.00
2018-07-04T01:02:50.888Z,0.00
2018-07-04T01:03:50.874Z,0.00
2018-07-04T01:04:50.873Z,0.00
2018-07-04T01:05:50.853Z,0.00
2018-07-04T01:06:50.840Z,0.00
2018-07-04T01:07:50.835Z,0.00
2018-07-04T01:08:50.826Z,0.00
2018-07-04T01:09:50.826Z,0.00
2018-07-04T01:10:50.800Z,0.00
2018-07-04T01:11:50.791Z,0.00
2018-07-04T01:12:50.781Z,0.00
2018-07-04T01:13:50.770Z,0.00
2018-07-04T01:14:53.599Z,0.00
2018-07-04T01:15:50.753Z,0.00
2018-07-04T01:16:50.732Z,0.00
2018-07-04T01:17:50.722Z,0.00
2018-07-04T01:18:50.709Z,0.00
2018-07-04T01:19:50.702Z,0.00
2018-07-04T01:20:50.702Z,0.00
2018-07-04T01:21:50.683Z,0.00
2018-07-04T01:22:50.670Z,0.00
2018-07-04T01:23:50.658Z,0.00
2018-07-04T01:24:50.644Z,0.00
2018-07-04T01:25:50.652Z,0.00
2018-07-04T01:26:50.624Z,0.00
2018-07-04T01:27:50.609Z,0.00
2018-07-04T01:28:50.603Z,0.00
2018-07-04T01:29:50.587Z,0.00
2018-07-04T01:30:50.575Z,0.00
2018-07-04T01:31:50.577Z,0.00
2018-07-04T01:32:50.555Z,0.00
2018-07-04T01:33:50.543Z,0.00
2018-07-04T01:34:50.546Z,0.00
2018-07-04T01:35:50.517Z,0.00
2018-07-04T01:36:50.516Z,0.00
2018-07-04T01:37:50.495Z,0.00
2018-07-04T01:38:50.482Z,0.00
2018-07-04T01:39:50.473Z,0.00
2018-07-04T01:40:50.464Z,0.00
2018-07-04T01:41:50.467Z,0.00
2018-07-04T01:42:50.436Z,0.00
2018-07-04T01:43:50.425Z,0.00
2018-07-04T01:44:50.416Z,0.00
2018-07-04T01:45:50.401Z,0.00
2018-07-04T01:46:50.392Z,0.00
2018-07-04T01:47:50.384Z,0.00
2018-07-04T01:48:50.362Z,0.00
2018-07-04T01:49:50.349Z,0.00
2018-07-04T01:50:50.338Z,0.00
2018-07-04T01:51:50.329Z,0.00
2018-07-04T01:52:50.326Z,0.00
2018-07-04T01:53:50.302Z,0.00
2018-07-04T01:54:50.289Z,0.00
2018-07-04T01:55:50.278Z,0.00
2018-07-04T01:56:50.265Z,0.00
2018-07-04T01:57:50.270Z,0.00
2018-07-04T01:58:50.241Z,0.00
2018-07-04T01:59:50.226Z,0.00
2018-07-04T02:00:50.215Z,0.00
2018-07-04T02:01:50.202Z,0.00
2018-07-04T02:02:50.186Z,0.00
2018-07-04T02:03:50.186Z,0.00
2018-07-04T02:04:50.163Z,0.00
2018-07-04T02:05:50.150Z,0.00
2018-07-04T02:06:50.138Z,0.00
2018-07-04T02:07:50.122Z,0.00
2018-07-04T02:08:50.149Z,0.00
2018-07-04T02:09:50.098Z,0.00
2018-07-04T02:10:50.135Z,0.00
2018-07-04T02:11:50.074Z,0.00
2018-07-04T02:12:50.061Z,0.00
2018-07-04T02:13:50.061Z,0.00
2018-07-04T02:14:50.037Z,0.00
2018-07-04T02:15:50.022Z,0.00
2018-07-04T02:16:50.010Z,0.00
2018-07-04T02:17:49.996Z,0.00
2018-07-04T02:18:49.985Z,0.00
2018-07-04T02:19:49.978Z,0.00
2018-07-04T02:20:49.956Z,0.00
2018-07-04T02:21:49.943Z,0.00
2018-07-04T02:22:49.930Z,0.00
2018-07-04T02:23:49.920Z,0.00
2018-07-04T02:24:49.917Z,0.00
2018-07-04T02:25:49.894Z,0.00
2018-07-04T02:26:49.881Z,0.00
2018-07-04T02:27:49.866Z,0.00
2018-07-04T02:28:49.851Z,0.00
2018-07-04T02:29:49.860Z,0.00
2018-07-04T02:30:49.830Z,0.00
2018-07-04T02:31:49.814Z,0.00
2018-07-04T02:32:49.802Z,0.00
2018-07-04T02:33:49.792Z,0.00
2018-07-04T02:34:49.777Z,0.00
2018-07-04T02:35:49.784Z,0.00
2018-07-04T02:36:49.758Z,0.00
2018-07-04T02:37:49.744Z,0.00
2018-07-04T02:38:49.733Z,0.00
2018-07-04T02:39:49.715Z,0.00
2018-07-04T02:40:49.711Z,0.00
2018-07-04T02:41:49.693Z,0.00
2018-07-04T02:42:49.680Z,0.00
2018-07-04T02:43:49.668Z,0.00
2018-07-04T02:44:49.671Z,0.00
2018-07-04T02:45:49.658Z,0.00
2018-07-04T02:46:49.627Z,0.00
2018-07-04T02:47:49.617Z,0.00
2018-07-04T02:48:49.603Z,0.00
2018-07-04T02:49:49.590Z,0.00
2018-07-04T02:50:49.578Z,0.00
2018-07-04T02:51:49.570Z,0.00
2018-07-04T02:52:49.546Z,0.00
2018-07-04T02:53:49.535Z,0.00
2018-07-04T02:54:49.519Z,0.00
2018-07-04T02:55:49.510Z,0.00
2018-07-04T02:56:49.510Z,0.00
2018-07-04T02:57:49.485Z,0.00
2018-07-04T02:58:49.472Z,0.00
2018-07-04T02:59:49.457Z,0.00
2018-07-04T03:00:49.442Z,0.00
2018-07-04T03:01:49.452Z,0.00
2018-07-04T03:02:49.421Z,0.00
2018-07-04T03:03:49.406Z,0.00
2018-07-04T03:04:49.394Z,0.00
2018-07-04T03:05:49.378Z,0.00
2018-07-04T03:06:49.366Z,0.00
2018-07-04T03:07:49.371Z,5.62
2018-07-04T03:08:49.346Z,5.62
2018-07-04T03:09:49.333Z,5.62
2018-07-04T03:10:49.321Z,5.62
2018-07-04T03:11:49.304Z,5.62
2018-07-04T03:12:49.302Z,5.62
2018-07-04T03:13:49.280Z,5.62
2018-07-04T03:14:49.267Z,5.62
2018-07-04T03:15:49.256Z,11.25
2018-07-04T03:16:49.244Z,11.25
2018-07-04T03:17:49.246Z,11.25
2018-07-04T03:18:49.215Z,11.25
2018-07-04T03:19:49.204Z,11.25
2018-07-04T03:20:49.193Z,16.88
2018-07-04T03:21:49.177Z,16.88
2018-07-04T03:22:49.168Z,16.88
2018-07-04T03:23:49.158Z,16.88
2018-07-04T03:24:49.141Z,22.50
2018-07-04T03:25:49.122Z,22.50
2018-07-04T03:26:49.107Z,22.50
2018-07-04T03:27:49.103Z,22.50
2018-07-04T03:28:49.096Z,28.12
2018-07-04T03:29:49.073Z,28.12
2018-07-04T03:30:49.061Z,28.12
2018-07-04T03:31:49.048Z,28.12
2018-07-04T03:32:49.032Z,28.12
2018-07-04T03:33:49.040Z,33.75
2018-07-04T03:34:49.009Z,33.75
2018-07-04T03:35:48.993Z,33.75
2018-07-04T03:36:48.980Z,39.38
2018-07-04T03:37:48.967Z,39.38
2018-07-04T03:38:48.952Z,39.38
2018-07-04T03:39:48.953Z,45.00
2018-07-04T03:40:48.930Z,45.00
2018-07-04T03:41:48.919Z,45.00
2018-07-04T03:42:48.904Z,50.62
2018-07-04T03:43:48.887Z,50.62
2018-07-04T03:44:48.885Z,56.25
2018-07-04T03:45:48.862Z,56.25
2018-07-04T03:46:48.846Z,56.25
2018-07-04T03:47:48.835Z,61.88
2018-07-04T03:48:48.822Z,61.88
2018-07-04T03:49:48.846Z,61.88
2018-07-04T03:50:48.791Z,67.50
2018-07-04T03:51:48.782Z,67.50
2018-07-04T03:52:48.771Z,67.50
2018-07-04T03:53:48.757Z,67.50
2018-07-04T03:54:48.744Z,67.50
2018-07-04T03:55:48.736Z,73.12
2018-07-04T03:56:48.715Z,73.12
2018-07-04T03:57:48.715Z,73.12
2018-07-04T03:58:48.688Z,73.12
2018-07-04T03:59:48.675Z,78.75
2018-07-04T04:00:48.661Z,78.75
2018-07-04T04:01:48.648Z,84.38
2018-07-04T04:02:48.634Z,84.38
2018-07-04T04:03:48.641Z,84.38
2018-07-04T04:04:48.608Z,90.00
2018-07-04T04:05:48.595Z,90.00
2018-07-04T04:06:48.582Z,95.62
2018-07-04T04:07:48.562Z,95.62
2018-07-04T04:08:48.569Z,95.62
2018-07-04T04:09:48.537Z,101.25
2018-07-04T04:10:48.525Z,101.25
2018-07-04T04:11:48.514Z,106.88
2018-07-04T04:12:48.502Z,112.50
2018-07-04T04:13:48.498Z,112.50
2018-07-04T04:14:48.495Z,112.50
2018-07-04T04:15:48.463Z,118.12
2018-07-04T04:16:48.450Z,123.75
2018-07-04T04:17:48.437Z,129.38
2018-07-04T04:18:48.428Z,129.38
2018-07-04T04:19:48.433Z,129.38
2018-07-04T04:20:48.421Z,135.00
2018-07-04T04:21:48.388Z,140.62
2018-07-04T04:22:48.374Z,146.25
2018-07-04T04:23:48.371Z,146.25
2018-07-04T04:24:48.354Z,151.88
2018-07-04T04:25:48.340Z,157.50
2018-07-04T04:26:48.577Z,157.50
2018-07-04T04:27:48.315Z,163.12
2018-07-04T04:28:48.296Z,163.12
2018-07-04T04:29:48.284Z,163.12
2018-07-04T04:30:48.271Z,163.12
2018-07-04T04:31:48.279Z,163.12
2018-07-04T04:32:48.255Z,163.12
2018-07-04T04:33:48.291Z,163.12
2018-07-04T04:34:48.237Z,163.12
2018-07-04T04:35:48.210Z,157.50
2018-07-04T04:36:48.205Z,157.50
2018-07-04T04:37:48.211Z,157.50
2018-07-04T04:38:48.180Z,163.12
2018-07-04T04:39:48.163Z,163.12
2018-07-04T04:40:48.157Z,168.75
2018-07-04T04:41:48.141Z,174.38
2018-07-04T04:42:48.131Z,174.38
2018-07-04T04:43:48.241Z,180.00
2018-07-04T04:44:48.112Z,191.25
2018-07-04T04:45:48.098Z,196.88
2018-07-04T04:46:48.087Z,202.50
2018-07-04T04:47:48.075Z,213.75
2018-07-04T04:48:48.065Z,213.75
2018-07-04T04:49:48.256Z,225.00
2018-07-04T04:50:48.044Z,230.62
2018-07-04T04:51:48.032Z,241.88
2018-07-04T04:52:48.021Z,253.12
2018-07-04T04:53:48.006Z,258.75
2018-07-04T04:54:48.032Z,264.38
2018-07-04T04:55:47.998Z,270.00
2018-07-04T04:56:47.977Z,275.62
2018-07-04T04:57:47.966Z,275.62
2018-07-04T04:58:47.955Z,275.62
2018-07-04T04:59:47.942Z,275.62
2018-07-04T05:00:47.950Z,275.62
2018-07-04T05:01:47.920Z,275.62
2018-07-04T05:02:47.907Z,275.62
2018-07-04T05:03:47.900Z,281.25
2018-07-04T05:04:47.891Z,281.25
2018-07-04T05:05:47.880Z,281.25
2018-07-04T05:06:47.885Z,281.25
2018-07-04T05:07:47.900Z,275.62
2018-07-04T05:08:48.527Z,270.00
2018-07-04T05:09:47.837Z,264.38
2018-07-04T05:10:47.827Z,264.38
2018-07-04T05:11:47.811Z,270.00
2018-07-04T05:12:47.823Z,281.25
2018-07-04T05:13:47.793Z,281.25
2018-07-04T05:14:47.779Z,281.25
2018-07-04T05:15:47.824Z,281.25
2018-07-04T05:16:47.765Z,281.25
2018-07-04T05:17:47.749Z,286.88
2018-07-04T05:18:47.752Z,286.88
2018-07-04T05:19:47.723Z,298.12
2018-07-04T05:20:47.716Z,303.75
2018-07-04T05:21:47.701Z,309.38
2018-07-04T05:22:47.736Z,309.38
2018-07-04T05:23:47.701Z,326.25
2018-07-04T05:24:47.671Z,315.00
2018-07-04T05:25:47.657Z,326.25
2018-07-04T05:26:47.644Z,331.88
2018-07-04T05:27:47.639Z,337.50
2018-07-04T05:28:47.627Z,343.12
2018-07-04T05:29:47.633Z,348.75
2018-07-04T05:30:47.605Z,348.75
2018-07-04T05:31:47.591Z,354.38
2018-07-04T05:32:47.580Z,365.62
2018-07-04T05:33:47.571Z,371.25
2018-07-04T05:34:47.558Z,376.88
2018-07-04T05:35:47.570Z,382.50
2018-07-04T05:36:47.540Z,388.12
2018-07-04T05:37:47.532Z,399.38
2018-07-04T05:38:47.518Z,410.62
2018-07-04T05:39:47.506Z,421.88
2018-07-04T05:40:47.497Z,421.88
2018-07-04T05:41:47.504Z,433.12
2018-07-04T05:42:47.475Z,438.75
2018-07-04T05:43:47.463Z,444.38
2018-07-04T05:44:47.453Z,455.62
2018-07-04T05:45:47.444Z,478.12
2018-07-04T05:46:47.428Z,478.12
2018-07-04T05:47:47.434Z,495.00
2018-07-04T05:48:47.548Z,511.88
2018-07-04T05:49:47.398Z,523.12
2018-07-04T05:50:47.391Z,528.75
2018-07-04T05:51:47.378Z,540.00
2018-07-04T05:52:47.380Z,551.25
2018-07-04T05:53:47.354Z,568.12
2018-07-04T05:54:47.348Z,585.00
2018-07-04T05:55:47.334Z,596.25
2018-07-04T05:56:47.325Z,601.88
2018-07-04T05:57:47.317Z,596.25
2018-07-04T05:58:47.315Z,590.62
2018-07-04T05:59:47.291Z,596.25
2018-07-04T06:00:47.280Z,585.00
2018-07-04T06:01:47.269Z,573.75
2018-07-04T06:02:47.291Z,551.25
2018-07-04T06:03:47.244Z,534.38
2018-07-04T06:04:47.254Z,523.12
2018-07-04T06:05:47.222Z,506.25
2018-07-04T06:06:47.216Z,489.38
2018-07-04T06:07:47.204Z,478.12
2018-07-04T06:08:47.193Z,466.88
2018-07-04T06:09:47.182Z,472.50
2018-07-04T06:10:47.185Z,466.88
2018-07-04T06:11:47.159Z,472.50
2018-07-04T06:12:47.146Z,478.12
2018-07-04T06:13:47.138Z,478.12
2018-07-04T06:14:47.131Z,483.75
2018-07-04T06:15:47.131Z,489.38
2018-07-04T06:16:47.104Z,495.00
2018-07-04T06:17:47.096Z,500.62
2018-07-04T06:18:47.082Z,511.88
2018-07-04T06:19:47.074Z,517.50
2018-07-04T06:20:47.063Z,523.12
2018-07-04T06:21:47.072Z,528.75
2018-07-04T06:22:47.042Z,528.75
2018-07-04T06:23:47.027Z,523.12
2018-07-04T06:24:47.035Z,517.50
2018-07-04T06:25:47.007Z,500.62
2018-07-04T06:26:46.996Z,489.38
2018-07-04T06:27:47.007Z,478.12
2018-07-04T06:28:46.979Z,472.50
2018-07-04T06:29:46.966Z,466.88
2018-07-04T06:30:46.952Z,466.88
2018-07-04T06:31:46.946Z,472.50
2018-07-04T06:32:46.935Z,472.50
2018-07-04T06:33:46.940Z,478.12
2018-07-04T06:34:46.913Z,483.75
2018-07-04T06:35:46.899Z,495.00
2018-07-04T06:36:46.887Z,495.00
2018-07-04T06:37:46.878Z,506.25
2018-07-04T06:38:46.868Z,517.50
2018-07-04T06:39:46.870Z,528.75
2018-07-04T06:40:46.849Z,545.62
2018-07-04T06:41:46.837Z,579.38
2018-07-04T06:42:46.827Z,596.25
2018-07-04T06:43:46.813Z,635.62
2018-07-04T06:44:46.815Z,658.12
2018-07-04T06:45:46.796Z,675.00
2018-07-04T06:46:46.786Z,675.00
2018-07-04T06:47:46.771Z,663.75
2018-07-04T06:48:46.767Z,658.12
2018-07-04T06:49:46.767Z,652.50
2018-07-04T06:50:46.740Z,652.50
2018-07-04T06:51:46.734Z,652.50
2018-07-04T06:52:46.729Z,652.50
2018-07-04T06:53:46.712Z,663.75
2018-07-04T06:54:46.699Z,658.12
2018-07-04T06:55:46.695Z,663.75
2018-07-04T06:56:46.675Z,663.75
2018-07-04T06:57:46.665Z,669.38
2018-07-04T06:58:46.651Z,669.38
2018-07-04T06:59:46.644Z,669.38
2018-07-04T07:00:46.651Z,669.38
2018-07-04T07:01:46.666Z,669.38
2018-07-04T07:02:46.610Z,669.38
2018-07-04T07:03:46.602Z,675.00
2018-07-04T07:04:46.592Z,686.25
2018-07-04T07:05:46.582Z,680.62
2018-07-04T07:06:46.593Z,686.25
2018-07-04T07:07:46.556Z,691.88
2018-07-04T07:08:46.544Z,697.50
2018-07-04T07:09:46.537Z,703.12
2018-07-04T07:10:46.525Z,703.12
2018-07-04T07:11:46.516Z,708.75
2018-07-04T07:12:46.520Z,703.12
2018-07-04T07:13:46.495Z,703.12
2018-07-04T07:14:46.509Z,725.62
2018-07-04T07:15:46.470Z,748.12
2018-07-04T07:16:46.458Z,776.25
2018-07-04T07:17:46.469Z,798.75
2018-07-04T07:18:46.442Z,804.38
2018-07-04T07:19:46.429Z,866.25
2018-07-04T07:20:46.415Z,900.00
2018-07-04T07:21:46.406Z,855.00
2018-07-04T07:22:46.395Z,855.00
2018-07-04T07:23:46.405Z,871.88
2018-07-04T07:24:46.379Z,883.12
2018-07-04T07:25:46.365Z,894.38
2018-07-04T07:26:46.356Z,922.50
2018-07-04T07:27:46.345Z,950.62
2018-07-04T07:28:46.330Z,984.38
2018-07-04T07:29:46.340Z,1040.62
2018-07-04T07:30:46.309Z,1293.75
2018-07-04T07:31:46.302Z,1310.62
2018-07-04T07:32:46.294Z,1215.00
2018-07-04T07:33:46.278Z,1321.88
2018-07-04T07:34:46.269Z,1265.62
2018-07-04T07:35:46.270Z,1530.00
2018-07-04T07:36:46.250Z,1873.12
2018-07-04T07:37:46.238Z,1631.25
2018-07-04T07:38:46.230Z,1400.62
2018-07-04T07:39:46.215Z,1456.88
2018-07-04T07:40:46.225Z,1783.12
2018-07-04T07:41:46.194Z,1552.50
2018-07-04T07:42:46.183Z,1372.50
2018-07-04T07:43:46.175Z,1490.62
2018-07-04T07:44:46.166Z,1355.62
2018-07-04T07:45:46.158Z,1299.38
2018-07-04T07:46:46.163Z,1153.12
2018-07-04T07:47:46.131Z,1141.88
2018-07-04T07:48:46.166Z,1057.50
2018-07-04T07:49:46.112Z,967.50
2018-07-04T07:50:46.103Z,945.00
2018-07-04T07:51:46.093Z,978.75
2018-07-04T07:52:46.100Z,1001.25
2018-07-04T07:53:46.067Z,1068.75
2018-07-04T07:54:46.057Z,1102.50
2018-07-04T07:55:46.052Z,1170.00
2018-07-04T07:56:46.041Z,1068.75
2018-07-04T07:57:46.028Z,1068.75
2018-07-04T07:58:46.036Z,1170.00
2018-07-04T07:59:46.004Z,1248.75
2018-07-04T08:00:45.993Z,1293.75
2018-07-04T08:01:46.001Z,1108.12
2018-07-04T08:02:45.972Z,1130.62
2018-07-04T08:03:45.966Z,1057.50
2018-07-04T08:04:45.965Z,1063.12
2018-07-04T08:05:45.946Z,1119.38
2018-07-04T08:06:45.931Z,1080.00
2018-07-04T08:07:45.925Z,1068.75
2018-07-04T08:08:45.914Z,1046.25
2018-07-04T08:09:45.920Z,1063.12
2018-07-04T08:10:45.895Z,1096.88
2018-07-04T08:11:45.880Z,1153.12
2018-07-04T08:12:45.890Z,1203.75
2018-07-04T08:13:45.859Z,1170.00
2018-07-04T08:14:45.851Z,1220.62
2018-07-04T08:15:45.860Z,1254.38
2018-07-04T08:16:45.834Z,1400.62
2018-07-04T08:17:45.822Z,1445.62
2018-07-04T08:18:45.842Z,1518.75
2018-07-04T08:19:45.798Z,1473.75
2018-07-04T08:20:45.790Z,1462.50
2018-07-04T08:21:45.797Z,1451.25
2018-07-04T08:22:45.769Z,1406.25
2018-07-04T08:23:45.755Z,1395.00
2018-07-04T08:24:45.744Z,1383.75
2018-07-04T08:25:45.734Z,1378.12
2018-07-04T08:26:45.725Z,1333.12
2018-07-04T08:27:45.729Z,1355.62
2018-07-04T08:28:45.706Z,1299.38
2018-07-04T08:29:45.695Z,1321.88
2018-07-04T08:30:45.686Z,1265.62
2018-07-04T08:31:45.672Z,1276.88
2018-07-04T08:32:45.682Z,1231.88
2018-07-04T08:33:45.653Z,1158.75
2018-07-04T08:34:45.643Z,1119.38
2018-07-04T08:35:45.639Z,1125.00
2018-07-04T08:36:45.638Z,1141.88
2018-07-04T08:37:45.611Z,1136.25
2018-07-04T08:38:45.618Z,1108.12
2018-07-04T08:39:45.593Z,1096.88
2018-07-04T08:40:45.583Z,1091.25
2018-07-04T08:41:45.574Z,1096.88
2018-07-04T08:42:45.563Z,1108.12
2018-07-04T08:43:45.547Z,1141.88
2018-07-04T08:44:45.584Z,1158.75
2018-07-04T08:45:45.529Z,1136.25
2018-07-04T08:46:45.514Z,1164.38
2018-07-04T08:47:45.510Z,1220.62
2018-07-04T08:48:45.496Z,1237.50
2018-07-04T08:49:45.485Z,1226.25
2018-07-04T08:50:45.521Z,1254.38
2018-07-04T08:51:45.462Z,1254.38
2018-07-04T08:52:45.463Z,1181.25
2018-07-04T08:53:45.444Z,1080.00
2018-07-04T08:54:45.431Z,1057.50
2018-07-04T08:55:45.436Z,1035.00
2018-07-04T08:56:45.408Z,995.62
2018-07-04T08:57:45.395Z,967.50
2018-07-04T08:58:45.384Z,950.62
2018-07-04T08:59:45.381Z,916.88
2018-07-04T09:00:45.370Z,888.75
2018-07-04T09:01:45.376Z,855.00
2018-07-04T09:02:45.348Z,826.88
2018-07-04T09:03:45.338Z,810.00
2018-07-04T09:04:45.325Z,798.75
2018-07-04T09:05:45.315Z,781.88
2018-07-04T09:06:45.304Z,776.25
2018-07-04T09:07:45.312Z,765.00
2018-07-04T09:08:45.285Z,765.00
2018-07-04T09:09:45.272Z,753.75
2018-07-04T09:10:45.262Z,731.25
2018-07-04T09:11:45.304Z,731.25
2018-07-04T09:12:45.244Z,725.62
2018-07-04T09:13:45.251Z,725.62
2018-07-04T09:14:45.223Z,714.38
2018-07-04T09:15:45.210Z,708.75
2018-07-04T09:16:45.198Z,708.75
2018-07-04T09:17:45.188Z,708.75
2018-07-04T09:18:45.182Z,703.12
2018-07-04T09:19:45.182Z,703.12
2018-07-04T09:20:45.160Z,703.12
2018-07-04T09:21:45.150Z,708.75
2018-07-04T09:22:45.139Z,708.75
2018-07-04T09:23:45.125Z,703.12
2018-07-04T09:24:45.132Z,703.12
2018-07-04T09:25:45.109Z,703.12
2018-07-04T09:26:45.099Z,703.12
2018-07-04T09:27:45.085Z,714.38
2018-07-04T09:28:45.075Z,714.38
2018-07-04T09:29:45.063Z,720.00
2018-07-04T09:30:45.070Z,725.62
2018-07-04T09:31:45.048Z,742.50
2018-07-04T09:32:45.072Z,753.75
2018-07-04T09:33:45.029Z,770.62
2018-07-04T09:34:45.015Z,793.12
2018-07-04T09:35:45.000Z,798.75
2018-07-04T09:36:45.008Z,810.00
2018-07-04T09:37:44.981Z,821.25
2018-07-04T09:38:44.971Z,832.50
2018-07-04T09:39:44.963Z,838.12
2018-07-04T09:40:44.954Z,843.75
2018-07-04T09:41:44.937Z,849.38
2018-07-04T09:42:44.938Z,855.00
2018-07-04T09:43:44.923Z,860.62
2018-07-04T09:44:44.911Z,866.25
2018-07-04T09:45:44.900Z,866.25
2018-07-04T09:46:44.891Z,866.25
2018-07-04T09:47:44.921Z,871.88
2018-07-04T09:48:44.867Z,877.50
2018-07-04T09:49:45.042Z,877.50
2018-07-04T09:50:44.848Z,883.12
2018-07-04T09:51:44.839Z,883.12
2018-07-04T09:52:44.826Z,883.12
2018-07-04T09:53:44.837Z,888.75
2018-07-04T09:54:44.806Z,888.75
2018-07-04T09:55:44.795Z,888.75
2018-07-04T09:56:44.781Z,894.38
2018-07-04T09:57:44.774Z,84.38
2018-07-04T09:58:44.789Z,78.75
2018-07-04T09:59:44.765Z,73.12
2018-07-04T10:00:44.740Z,73.12
2018-07-04T10:01:44.732Z,73.12
2018-07-04T10:02:44.719Z,73.12
2018-07-04T10:03:44.711Z,73.12
2018-07-04T10:04:44.701Z,73.12
2018-07-04T10:05:44.727Z,73.12
2018-07-04T10:06:44.677Z,73.12
2018-07-04T10:07:44.662Z,73.12
2018-07-04T10:08:44.652Z,78.75
2018-07-04T10:09:44.645Z,73.12
2018-07-04T10:10:44.630Z,73.12
2018-07-04T10:11:44.633Z,73.12
2018-07-04T10:12:44.713Z,78.75
2018-07-04T10:13:44.600Z,84.38
2018-07-04T10:14:44.586Z,90.00
2018-07-04T10:15:44.579Z,95.62
2018-07-04T10:16:44.586Z,112.50
2018-07-04T10:17:44.558Z,112.50
2018-07-04T10:18:44.548Z,163.12
2018-07-04T10:19:44.533Z,202.50
2018-07-04T10:20:44.524Z,225.00
2018-07-04T10:21:44.512Z,241.88
2018-07-04T10:22:44.519Z,258.75
2018-07-04T10:23:44.494Z,275.62
2018-07-04T10:24:44.486Z,292.50
2018-07-04T10:25:44.474Z,281.25
2018-07-04T10:26:44.463Z,292.50
2018-07-04T10:27:44.449Z,292.50
2018-07-04T10:28:44.503Z,258.75
2018-07-04T10:29:44.434Z,303.75
2018-07-04T10:30:44.422Z,309.38
2018-07-04T10:31:44.411Z,315.00
2018-07-04T10:32:44.400Z,213.75
2018-07-04T10:33:44.387Z,146.25
2018-07-04T10:34:44.394Z,320.62
2018-07-04T10:35:44.371Z,320.62
2018-07-04T10:36:44.362Z,348.75
2018-07-04T10:37:44.351Z,331.88
2018-07-04T10:38:44.341Z,309.38
2018-07-04T10:39:44.345Z,315.00
2018-07-04T10:40:44.320Z,320.62
2018-07-04T10:41:44.308Z,309.38
2018-07-04T10:42:44.298Z,337.50
2018-07-04T10:43:44.293Z,315.00
2018-07-04T10:44:44.331Z,320.62
2018-07-04T10:45:44.289Z,315.00
2018-07-04T10:46:44.259Z,315.00
2018-07-04T10:47:44.253Z,326.25
2018-07-04T10:48:44.246Z,326.25
2018-07-04T10:49:44.234Z,326.25
2018-07-04T10:50:44.224Z,326.25
2018-07-04T10:51:44.230Z,326.25
2018-07-04T10:52:44.202Z,326.25
2018-07-04T10:53:44.192Z,354.38
2018-07-04T10:54:44.183Z,326.25
2018-07-04T10:55:44.177Z,151.88
2018-07-04T10:56:44.170Z,331.88
2018-07-04T10:57:44.169Z,326.25
2018-07-04T10:58:44.148Z,202.50
2018-07-04T10:59:44.136Z,163.12
2018-07-04T11:00:44.129Z,213.75
2018-07-04T11:01:44.121Z,185.62
2018-07-04T11:02:44.132Z,303.75
2018-07-04T11:03:44.098Z,315.00
2018-07-04T11:04:44.090Z,315.00
2018-07-04T11:05:44.082Z,309.38
2018-07-04T11:06:44.078Z,309.38
2018-07-04T11:07:44.071Z,315.00
2018-07-04T11:08:44.077Z,309.38
2018-07-04T11:09:44.048Z,315.00
2018-07-04T11:10:44.038Z,315.00
2018-07-04T11:11:44.027Z,320.62
2018-07-04T11:12:44.018Z,309.38
2018-07-04T11:13:44.009Z,315.00
2018-07-04T11:14:44.019Z,315.00
2018-07-04T11:15:43.994Z,309.38
2018-07-04T11:16:44.049Z,309.38
2018-07-04T11:17:43.973Z,315.00
2018-07-04T11:18:43.961Z,309.38
2018-07-04T11:19:43.956Z,309.38
2018-07-04T11:20:43.965Z,309.38
2018-07-04T11:21:43.940Z,309.38
2018-07-04T11:22:43.930Z,309.38
2018-07-04T11:23:43.917Z,309.38
2018-07-04T11:24:43.909Z,309.38
2018-07-04T11:25:43.902Z,309.38
2018-07-04T11:26:43.903Z,309.38
2018-07-04T11:27:43.884Z,331.88
2018-07-04T11:28:43.872Z,303.75
2018-07-04T11:29:43.864Z,303.75
2018-07-04T11:30:43.854Z,303.75
2018-07-04T11:31:43.869Z,303.75
2018-07-04T11:32:43.841Z,309.38
2018-07-04T11:33:43.828Z,309.38
2018-07-04T11:34:43.820Z,309.38
2018-07-04T11:35:43.817Z,309.38
2018-07-04T11:36:43.806Z,315.00
2018-07-04T11:37:43.816Z,315.00
2018-07-04T11:38:43.790Z,309.38
2018-07-04T11:39:43.774Z,281.25
2018-07-04T11:40:43.768Z,270.00
2018-07-04T11:41:43.758Z,253.12
2018-07-04T11:42:43.748Z,264.38
2018-07-04T11:43:43.764Z,331.88
2018-07-04T11:44:43.734Z,320.62
2018-07-04T11:45:43.725Z,315.00
2018-07-04T11:46:43.720Z,174.38
2018-07-04T11:47:43.706Z,225.00
2018-07-04T11:48:43.696Z,264.38
2018-07-04T11:49:43.705Z,180.00
2018-07-04T11:50:43.682Z,180.00
2018-07-04T11:51:43.670Z,225.00
2018-07-04T11:52:43.661Z,213.75
2018-07-04T11:53:43.653Z,326.25
2018-07-04T11:54:43.662Z,292.50
2018-07-04T11:55:43.643Z,264.38
2018-07-04T11:56:43.631Z,236.25
2018-07-04T11:57:43.625Z,174.38
2018-07-04T11:58:43.626Z,163.12
2018-07-04T11:59:43.603Z,219.38
2018-07-04T12:00:43.600Z,202.50
2018-07-04T12:01:43.605Z,247.50
2018-07-04T12:02:43.573Z,236.25
2018-07-04T12:03:43.570Z,303.75
2018-07-04T12:04:43.558Z,337.50
2018-07-04T12:05:43.563Z,303.75
2018-07-04T12:06:43.538Z,309.38
2018-07-04T12:07:43.532Z,286.88
2018-07-04T12:08:43.527Z,303.75
2018-07-04T12:09:43.514Z,281.25
2018-07-04T12:10:43.506Z,247.50
2018-07-04T12:11:43.503Z,241.88
2018-07-04T12:12:43.484Z,247.50
2018-07-04T12:13:43.478Z,208.12
2018-07-04T12:14:43.466Z,225.00
2018-07-04T12:15:43.463Z,275.62
2018-07-04T12:16:43.472Z,225.00
2018-07-04T12:17:43.446Z,337.50
2018-07-04T12:18:43.435Z,247.50
2018-07-04T12:19:43.431Z,275.62
2018-07-04T12:20:43.414Z,185.62
2018-07-04T12:21:43.409Z,230.62
2018-07-04T12:22:43.412Z,286.88
2018-07-04T12:23:43.389Z,230.62
2018-07-04T12:24:43.380Z,309.38
2018-07-04T12:25:43.372Z,264.38
2018-07-04T12:26:43.551Z,241.88
2018-07-04T12:27:43.379Z,180.00
2018-07-04T12:28:43.349Z,253.12
2018-07-04T12:29:43.338Z,258.75
2018-07-04T12:30:43.330Z,281.25
2018-07-04T12:31:43.318Z,286.88
2018-07-04T12:32:43.310Z,281.25
2018-07-04T12:33:43.313Z,281.25
2018-07-04T12:34:43.292Z,281.25
2018-07-04T12:35:43.287Z,281.25
2018-07-04T12:36:43.276Z,281.25
2018-07-04T12:37:43.267Z,275.62
2018-07-04T12:38:43.273Z,275.62
2018-07-04T12:39:43.251Z,275.62
2018-07-04T12:40:43.243Z,275.62